createdAt,value
2019-04-14T00:02:34.117Z,0.97
2019-04-14T00:05:10.668Z,1.07
2019-04-14T00:07:44.980Z,1.11
2019-04-14T00:10:20.402Z,1.12
2019-04-14T00:12:53.716Z,0.96
2019-04-14T00:15:35.839Z,1.02
2019-04-14T00:18:03.646Z,1.11
2019-04-14T00:20:36.736Z,1.14
2019-04-14T00:23:10.882Z,1.06
2019-04-14T00:25:45.426Z,1.06
2019-04-14T00:28:18.618Z,1.15
2019-04-14T00:30:51.763Z,1.14
2019-04-14T00:33:28.106Z,1.06
2019-04-14T00:36:26.067Z,1.07
2019-04-14T00:38:59.213Z,1.16
2019-04-14T00:42:01.176Z,1.26
2019-04-14T00:44:47.364Z,1.21
2019-04-14T00:47:26.998Z,1.23
2019-04-14T00:50:01.643Z,1.07
2019-04-14T00:52:35.009Z,1.14
2019-04-14T00:55:09.711Z,1.16
2019-04-14T00:57:44.130Z,1.17
2019-04-14T01:00:19.299Z,1.20
2019-04-14T01:02:53.702Z,1.18
2019-04-14T01:05:26.976Z,1.11
2019-04-14T01:08:00.978Z,1.09
2019-04-14T01:10:34.417Z,1.13
2019-04-14T01:13:10.745Z,1.11
2019-04-14T01:15:51.217Z,1.21
2019-04-14T01:18:18.904Z,1.14
2019-04-14T01:20:53.604Z,1.11
2019-04-14T01:23:26.521Z,1.09
2019-04-14T01:26:00.648Z,1.11
2019-04-14T01:28:35.444Z,1.15
2019-04-14T01:31:09.746Z,1.15
2019-04-14T01:33:43.031Z,1.26
2019-04-14T01:36:17.048Z,1.21
2019-04-14T01:38:51.324Z,1.20
2019-04-14T01:41:24.487Z,1.23
2019-04-14T01:43:58.257Z,1.14
2019-04-14T01:46:34.630Z,1.15
2019-04-14T01:49:09.334Z,1.14
2019-04-14T01:52:01.345Z,1.15
2019-04-14T01:55:13.267Z,1.26
2019-04-14T01:58:05.460Z,1.17
2019-04-14T02:01:12.782Z,1.19
2019-04-14T02:03:45.588Z,1.15
2019-04-14T02:06:20.078Z,1.23
2019-04-14T02:08:54.681Z,1.24
2019-04-14T02:11:27.663Z,1.13
2019-04-14T02:14:01.577Z,1.04
2019-04-14T02:16:41.886Z,1.06
2019-04-14T02:19:13.118Z,1.06
2019-04-14T02:21:47.654Z,1.11
2019-04-14T02:24:22.058Z,1.12
2019-04-14T02:26:56.983Z,0.95
2019-04-14T02:29:33.915Z,0.91
2019-04-14T02:32:33.396Z,0.94
2019-04-14T02:35:12.847Z,0.87
2019-04-14T02:37:44.727Z,0.77
2019-04-14T02:40:18.131Z,0.78
2019-04-14T02:45:35.326Z,0.75
2019-04-14T02:48:14.666Z,0.76
2019-04-14T02:50:36.966Z,0.78
2019-04-14T02:53:18.074Z,0.80
2019-04-14T02:55:58.143Z,0.72
2019-04-14T02:58:28.863Z,0.77
2019-04-14T03:06:07.796Z,0.79
2019-04-14T03:11:20.587Z,0.79
2019-04-14T03:13:58.366Z,0.78
2019-04-14T03:16:37.592Z,0.79
2019-04-14T03:19:17.795Z,0.73
2019-04-14T03:22:12.279Z,0.79
2019-04-14T03:24:47.636Z,0.70
2019-04-14T03:33:49.365Z,0.81
2019-04-14T03:36:18.793Z,0.92
2019-04-14T03:41:10.775Z,0.86
2019-04-14T03:43:36.766Z,0.84
2019-04-14T03:46:17.750Z,0.92
2019-04-14T03:51:26.352Z,0.95
2019-04-14T03:56:49.083Z,0.97
2019-04-14T03:59:23.958Z,0.90
2019-04-14T04:01:58.500Z,0.84
2019-04-14T04:04:31.839Z,0.82
2019-04-14T04:07:06.066Z,0.77
2019-04-14T04:09:47.518Z,0.79
2019-04-14T04:12:20.764Z,0.72
2019-04-14T04:14:53.854Z,0.76
2019-04-14T04:17:43.086Z,0.79
2019-04-14T04:20:54.420Z,0.81
2019-04-14T04:23:44.593Z,0.86
2019-04-14T04:26:38.620Z,0.96
2019-04-14T04:29:22.921Z,0.96
2019-04-14T04:32:14.774Z,0.78
2019-04-14T04:35:04.318Z,0.66
2019-04-14T04:38:03.012Z,0.70
2019-04-14T04:40:37.600Z,0.67
2019-04-14T04:43:10.747Z,0.57
2019-04-14T04:45:43.730Z,0.72
2019-04-14T04:48:17.437Z,0.60
2019-04-14T04:50:51.987Z,0.73
2019-04-14T04:53:26.577Z,0.56
2019-04-14T04:55:59.373Z,0.61
2019-04-14T04:58:32.778Z,0.53
2019-04-14T05:01:06.139Z,0.57
2019-04-14T05:03:40.628Z,0.59
2019-04-14T05:07:09.921Z,0.62
2019-04-14T05:10:00.275Z,0.57
2019-04-14T05:13:02.983Z,0.63
2019-04-14T05:15:45.032Z,0.63
2019-04-14T05:18:22.092Z,0.67
2019-04-14T05:20:55.692Z,0.70
2019-04-14T05:23:29.834Z,0.71
2019-04-14T05:26:02.976Z,0.84
2019-04-14T05:28:37.318Z,0.88
2019-04-14T05:31:14.301Z,0.90
2019-04-14T05:33:48.942Z,0.89
2019-04-14T05:36:22.232Z,0.98
2019-04-14T05:38:56.735Z,1.13
2019-04-14T05:41:30.844Z,1.18
2019-04-14T05:44:05.152Z,1.20
2019-04-14T05:46:43.118Z,1.30
2019-04-14T05:49:29.183Z,1.40
2019-04-14T05:51:52.348Z,1.43
2019-04-14T05:54:25.927Z,1.65
2019-04-14T05:57:04.655Z,1.69
2019-04-14T05:59:41.859Z,1.67
2019-04-14T06:02:15.943Z,1.78
2019-04-14T06:04:50.333Z,1.81
2019-04-14T06:07:24.157Z,1.89
2019-04-14T06:09:57.657Z,1.64
2019-04-14T06:12:30.659Z,1.58
2019-04-14T06:15:03.781Z,1.69
2019-04-14T06:17:37.409Z,1.70
2019-04-14T06:20:11.320Z,1.62
2019-04-14T06:22:44.509Z,1.57
2019-04-14T06:25:17.765Z,1.42
2019-04-14T06:27:50.962Z,1.59
2019-04-14T06:30:36.822Z,1.54
2019-04-14T06:33:32.060Z,1.57
2019-04-14T06:36:18.363Z,1.58
2019-04-14T06:39:00.877Z,1.54
2019-04-14T06:41:33.984Z,1.48
2019-04-14T06:44:08.716Z,1.49
2019-04-14T06:46:41.973Z,1.65
2019-04-14T06:49:15.046Z,1.55
2019-04-14T06:51:48.063Z,1.39
2019-04-14T06:54:27.842Z,1.54
2019-04-14T06:56:59.155Z,1.71
2019-04-14T06:59:32.493Z,1.91
2019-04-14T07:02:08.710Z,2.03
2019-04-14T07:04:42.697Z,2.35
2019-04-14T07:07:16.536Z,2.57
2019-04-14T07:09:49.608Z,2.24
2019-04-14T07:12:22.694Z,2.47
2019-04-14T07:14:56.091Z,2.68
2019-04-14T07:17:30.474Z,2.92
2019-04-14T07:20:03.705Z,2.89
2019-04-14T07:22:36.789Z,2.91
2019-04-14T07:25:20.777Z,2.96
2019-04-14T07:27:53.865Z,3.02
2019-04-14T07:30:48.501Z,3.15
2019-04-14T07:33:55.636Z,3.51
2019-04-14T07:36:50.297Z,3.66
2019-04-14T07:39:42.299Z,3.48
2019-04-14T07:42:21.758Z,3.50
2019-04-14T07:45:19.669Z,3.49
2019-04-14T07:48:06.542Z,3.62
2019-04-14T07:50:57.121Z,3.38
2019-04-14T07:53:34.822Z,3.16
2019-04-14T07:56:26.608Z,3.10
2019-04-14T07:59:11.368Z,2.68
2019-04-14T08:01:56.638Z,2.51
2019-04-14T08:04:34.193Z,2.64
2019-04-14T08:07:09.674Z,2.54
2019-04-14T08:09:42.873Z,2.57
2019-04-14T08:12:16.273Z,2.48
2019-04-14T08:14:52.182Z,2.49
2019-04-14T08:17:25.238Z,2.45
2019-04-14T08:20:00.787Z,2.30
2019-04-14T08:22:47.735Z,2.36
2019-04-14T08:25:21.646Z,2.64
2019-04-14T08:27:54.833Z,2.71
2019-04-14T08:30:27.976Z,2.39
2019-04-14T08:33:01.128Z,2.69
2019-04-14T08:35:34.112Z,2.42
2019-04-14T08:38:07.497Z,2.79
2019-04-14T08:40:43.635Z,3.07
2019-04-14T08:43:41.551Z,3.44
2019-04-14T08:46:29.765Z,3.63
2019-04-14T08:49:10.503Z,3.07
2019-04-14T08:52:03.385Z,3.04
2019-04-14T08:54:48.019Z,2.61
2019-04-14T08:57:42.865Z,2.72
2019-04-14T09:00:33.784Z,2.88
2019-04-14T09:03:24.421Z,3.20
2019-04-14T09:06:07.382Z,3.11
2019-04-14T09:08:47.866Z,3.42
2019-04-14T09:11:27.186Z,3.57
2019-04-14T09:14:02.121Z,3.75
2019-04-14T09:16:35.108Z,3.83
2019-04-14T09:19:13.319Z,3.71
2019-04-14T09:21:47.078Z,3.45
2019-04-14T09:24:20.560Z,3.54
2019-04-14T09:27:06.611Z,3.31
2019-04-14T09:29:41.026Z,3.59
2019-04-14T09:32:15.975Z,3.37
2019-04-14T09:34:49.401Z,3.31
2019-04-14T09:37:23.002Z,3.22
2019-04-14T09:39:56.051Z,3.04
2019-04-14T09:42:29.013Z,3.11
2019-04-14T09:45:01.978Z,2.94
2019-04-14T09:47:35.093Z,2.80
2019-04-14T09:50:08.894Z,2.95
2019-04-14T09:52:41.901Z,2.87
2019-04-14T09:55:14.897Z,2.90
2019-04-14T09:57:47.925Z,2.71
2019-04-14T10:00:21.794Z,2.86
2019-04-14T10:02:56.955Z,2.90
2019-04-14T10:05:32.580Z,3.04
2019-04-14T10:08:05.851Z,3.08
2019-04-14T10:10:39.097Z,3.26
2019-04-14T10:13:12.382Z,3.13
2019-04-14T10:15:45.453Z,2.96
2019-04-14T10:18:21.199Z,3.15
2019-04-14T10:20:55.474Z,3.40
2019-04-14T10:23:28.806Z,3.58
2019-04-14T10:26:01.846Z,3.71
2019-04-14T10:28:34.782Z,3.71
2019-04-14T10:31:08.011Z,3.85
2019-04-14T10:33:41.362Z,4.20
2019-04-14T10:36:14.579Z,4.47
2019-04-14T10:38:47.629Z,4.76
2019-04-14T10:41:20.725Z,5.11
2019-04-14T10:43:53.829Z,5.29
2019-04-14T10:46:27.107Z,5.04
2019-04-14T10:49:00.434Z,5.15
2019-04-14T10:51:34.801Z,4.38
2019-04-14T10:54:07.965Z,4.65
2019-04-14T10:59:21.343Z,4.34
2019-04-14T11:01:54.406Z,3.91
2019-04-14T11:04:27.469Z,3.84
2019-04-14T11:07:04.266Z,4.16
2019-04-14T11:09:37.228Z,4.20
2019-04-14T11:12:10.312Z,3.31
2019-04-14T11:14:43.527Z,3.34
2019-04-14T11:17:16.716Z,3.12
2019-04-14T11:19:49.908Z,3.16
2019-04-14T11:22:22.937Z,3.43
2019-04-14T11:24:56.247Z,3.76
2019-04-14T11:27:29.204Z,3.96
2019-04-14T11:30:06.416Z,3.82
2019-04-14T11:33:04.479Z,3.94
2019-04-14T11:35:48.659Z,3.95
2019-04-14T11:38:25.481Z,4.26
2019-04-14T11:41:00.433Z,4.31
2019-04-14T11:43:37.106Z,4.32
2019-04-14T11:46:10.226Z,4.43
2019-04-14T11:48:43.279Z,4.47
2019-04-14T11:51:18.566Z,4.41
2019-04-14T11:53:51.830Z,4.65
2019-04-14T11:56:29.241Z,4.81
2019-04-14T11:59:02.391Z,4.79
2019-04-14T12:02:00.107Z,4.83
2019-04-14T12:04:37.024Z,4.36
2019-04-14T12:07:26.576Z,4.47
2019-04-14T12:10:12.025Z,4.47
2019-04-14T12:12:44.329Z,4.35
2019-04-14T12:15:17.675Z,4.17
2019-04-14T12:17:51.059Z,4.15
2019-04-14T12:20:27.318Z,4.33
2019-04-14T12:23:00.332Z,3.89
2019-04-14T12:25:33.507Z,4.56
2019-04-14T12:28:07.443Z,4.76
2019-04-14T12:30:40.657Z,4.45
2019-04-14T12:33:14.031Z,4.84
2019-04-14T12:35:47.108Z,5.15
2019-04-14T12:38:20.424Z,5.41
2019-04-14T12:40:57.589Z,5.46
2019-04-14T12:43:40.463Z,5.09
2019-04-14T12:46:33.233Z,5.22
2019-04-14T12:49:18.872Z,4.90
2019-04-14T12:52:20.580Z,4.72
2019-04-14T12:54:44.396Z,4.79
2019-04-14T12:57:21.140Z,4.67
2019-04-14T12:59:54.543Z,4.78
2019-04-14T13:02:37.984Z,4.65
2019-04-14T13:05:11.500Z,4.40
2019-04-14T13:07:44.812Z,4.14
2019-04-14T13:10:18.207Z,3.76
2019-04-14T13:12:53.555Z,3.62
2019-04-14T13:15:26.262Z,3.10
2019-04-14T13:17:59.473Z,2.70
2019-04-14T13:20:32.587Z,2.82
2019-04-14T13:23:05.962Z,3.02
2019-04-14T13:25:39.363Z,3.24
2019-04-14T13:28:12.521Z,3.43
2019-04-14T13:30:48.251Z,3.32
2019-04-14T13:33:21.104Z,3.63
2019-04-14T13:35:54.287Z,4.03
2019-04-14T13:38:27.454Z,4.23
2019-04-14T13:41:00.621Z,4.18
2019-04-14T13:43:33.715Z,3.93
2019-04-14T13:46:06.853Z,4.30
2019-04-14T13:48:40.676Z,4.56
2019-04-14T13:51:16.823Z,4.73
2019-04-14T13:53:49.773Z,3.83
2019-04-14T13:56:22.950Z,3.92
2019-04-14T13:58:56.324Z,3.89
2019-04-14T14:01:32.524Z,3.81
2019-04-14T14:04:06.131Z,3.73
2019-04-14T14:06:39.242Z,3.67
2019-04-14T14:09:14.276Z,3.86
2019-04-14T14:12:04.849Z,3.68
2019-04-14T14:14:53.681Z,3.54
2019-04-14T14:17:48.645Z,3.50
2019-04-14T14:20:35.145Z,3.05
2019-04-14T14:23:30.617Z,2.82
2019-04-14T14:26:07.548Z,3.03
2019-04-14T14:28:40.657Z,3.17
2019-04-14T14:31:19.077Z,3.50
2019-04-14T14:33:52.295Z,3.92
2019-04-14T14:36:25.457Z,4.11
2019-04-14T14:38:59.004Z,4.07
2019-04-14T14:41:32.603Z,3.95
2019-04-14T14:44:06.455Z,3.77
2019-04-14T14:46:56.677Z,3.73
2019-04-14T14:49:51.643Z,3.51
2019-04-14T14:52:24.914Z,3.38
2019-04-14T14:54:58.639Z,3.40
2019-04-14T14:57:33.338Z,3.29
2019-04-14T15:00:20.388Z,3.39
2019-04-14T15:02:53.462Z,3.35
2019-04-14T15:05:27.762Z,3.16
2019-04-14T15:08:28.891Z,3.14
2019-04-14T15:11:04.500Z,3.34
2019-04-14T15:13:39.412Z,3.37
2019-04-14T15:16:14.686Z,3.29
2019-04-14T15:18:50.134Z,3.23
2019-04-14T15:21:35.004Z,3.40
2019-04-14T15:24:13.348Z,3.22
2019-04-14T15:26:46.156Z,3.22
2019-04-14T15:29:22.033Z,3.08
2019-04-14T15:31:58.398Z,3.05
2019-04-14T15:34:32.018Z,3.02
2019-04-14T15:37:05.333Z,2.98
2019-04-14T15:39:42.215Z,3.09
2019-04-14T15:42:15.896Z,3.01
2019-04-14T15:44:49.631Z,2.93
2019-04-14T15:47:28.237Z,2.96
2019-04-14T15:50:01.494Z,3.02
2019-04-14T15:52:35.999Z,2.96
2019-04-14T15:55:09.409Z,2.79
2019-04-14T15:57:48.567Z,2.73
2019-04-14T16:00:43.667Z,2.86
2019-04-14T16:03:41.947Z,2.91
2019-04-14T16:06:38.518Z,2.93
2019-04-14T16:09:29.889Z,2.84
2019-04-14T16:12:17.343Z,2.81
2019-04-14T16:15:15.107Z,2.75
2019-04-14T16:17:53.358Z,2.74
2019-04-14T16:20:35.037Z,2.66
2019-04-14T16:23:07.570Z,2.61
2019-04-14T16:26:02.368Z,2.65
2019-04-14T16:28:41.274Z,2.68
2019-04-14T16:31:35.608Z,2.68
2019-04-14T16:34:18.480Z,2.53
2019-04-14T16:37:17.610Z,2.57
2019-04-14T16:39:50.522Z,2.53
2019-04-14T16:42:27.159Z,2.29
2019-04-14T16:45:02.513Z,2.25
2019-04-14T16:47:44.199Z,2.26
2019-04-14T16:50:21.866Z,2.27
2019-04-14T16:53:14.391Z,2.36
2019-04-14T16:56:10.548Z,2.39
2019-04-14T16:58:59.751Z,2.40
2019-04-14T17:01:36.493Z,2.40
2019-04-14T17:04:15.470Z,2.36
2019-04-14T17:06:51.235Z,2.31
2019-04-14T17:09:23.766Z,2.25
2019-04-14T17:12:02.688Z,2.30
2019-04-14T17:15:03.407Z,2.25
2019-04-14T17:17:47.673Z,2.19
2019-04-14T17:20:40.272Z,2.29
2019-04-14T17:23:52.485Z,2.12
2019-04-14T17:27:01.690Z,2.19
2019-04-14T17:29:54.832Z,2.21
2019-04-14T17:32:52.791Z,2.24
2019-04-14T17:35:44.379Z,2.28
2019-04-14T17:38:41.682Z,2.29
2019-04-14T17:41:41.486Z,2.38
2019-04-14T17:44:32.988Z,2.31
2019-04-14T17:47:46.474Z,2.35
2019-04-14T17:50:46.532Z,2.23
2019-04-14T17:53:37.448Z,2.13
2019-04-14T17:56:20.896Z,2.17
2019-04-14T17:59:23.416Z,2.15
2019-04-14T18:02:11.697Z,2.19
2019-04-14T18:05:06.620Z,2.26
2019-04-14T18:08:01.253Z,2.25
2019-04-14T18:10:47.295Z,2.23
2019-04-14T18:13:25.844Z,2.18
2019-04-14T18:16:11.566Z,2.20
2019-04-14T18:19:09.378Z,2.21
2019-04-14T18:21:44.182Z,2.22
2019-04-14T18:24:18.764Z,2.21
2019-04-14T18:26:51.751Z,2.30
2019-04-14T18:29:36.555Z,2.33
2019-04-14T18:32:43.451Z,2.28
2019-04-14T18:35:34.299Z,2.30
2019-04-14T18:38:14.893Z,2.23
2019-04-14T18:40:58.183Z,2.24
2019-04-14T18:43:58.117Z,2.24
2019-04-14T18:46:58.935Z,2.20
2019-04-14T18:49:53.690Z,2.22
2019-04-14T18:52:45.548Z,2.23
2019-04-14T18:55:29.521Z,2.15
2019-04-14T18:58:30.252Z,2.21
2019-04-14T19:01:07.532Z,2.24
2019-04-14T19:03:40.512Z,2.25
2019-04-14T19:06:15.258Z,2.22
2019-04-14T19:08:48.198Z,2.30
2019-04-14T19:11:43.174Z,2.26
2019-04-14T19:14:25.513Z,2.28
2019-04-14T19:17:09.034Z,2.41
2019-04-14T19:19:45.471Z,2.41
2019-04-14T19:22:18.647Z,2.39
2019-04-14T19:24:51.774Z,2.34
2019-04-14T19:27:24.756Z,2.29
2019-04-14T19:29:59.734Z,2.29
2019-04-14T19:32:32.803Z,2.28
2019-04-14T19:35:06.372Z,2.30
2019-04-14T19:37:39.365Z,2.24
2019-04-14T19:40:35.567Z,2.24
2019-04-14T19:43:22.887Z,2.25
2019-04-14T19:45:46.356Z,2.29
2019-04-14T19:48:22.216Z,2.31
2019-04-14T19:50:56.128Z,2.37
2019-04-14T19:53:29.655Z,2.54
2019-04-14T19:56:02.942Z,2.51
2019-04-14T19:58:36.117Z,2.49
2019-04-14T20:01:12.028Z,2.50
2019-04-14T20:03:46.809Z,2.51
2019-04-14T20:06:19.812Z,2.46
2019-04-14T20:08:52.547Z,2.57
2019-04-14T20:11:30.963Z,2.53
2019-04-14T20:14:05.456Z,2.49
2019-04-14T20:16:51.328Z,2.47
2019-04-14T20:19:46.407Z,2.44
2019-04-14T20:22:27.550Z,2.52
2019-04-14T20:25:16.555Z,2.45
2019-04-14T20:28:08.433Z,2.50
2019-04-14T20:30:48.892Z,2.48
2019-04-14T20:33:22.216Z,2.46
2019-04-14T20:35:55.257Z,2.43
2019-04-14T20:38:28.386Z,2.43
2019-04-14T20:41:01.229Z,2.41
2019-04-14T20:43:34.219Z,2.46
2019-04-14T20:46:10.221Z,2.50
2019-04-14T20:48:43.339Z,2.47
2019-04-14T20:51:16.455Z,2.55
2019-04-14T20:53:49.722Z,2.54
2019-04-14T20:56:25.451Z,2.46
2019-04-14T20:58:58.977Z,2.48
2019-04-14T21:01:34.260Z,2.52
2019-04-14T21:04:26.391Z,2.47
2019-04-14T21:07:18.275Z,2.46
2019-04-14T21:10:07.447Z,2.46
2019-04-14T21:12:51.995Z,2.50
2019-04-14T21:15:29.901Z,2.47
2019-04-14T21:18:12.540Z,2.37
2019-04-14T21:21:04.729Z,2.40
2019-04-14T21:23:46.957Z,2.39
2019-04-14T21:26:34.819Z,2.32
2019-04-14T21:29:27.296Z,2.36
2019-04-14T21:32:10.580Z,2.38
2019-04-14T21:35:08.438Z,2.29
2019-04-14T21:37:59.139Z,2.27
2019-04-14T21:40:44.779Z,2.31
2019-04-14T21:43:17.856Z,2.23
2019-04-14T21:45:50.745Z,2.23
2019-04-14T21:48:23.866Z,2.19
2019-04-14T21:50:56.979Z,2.09
2019-04-14T21:53:29.942Z,2.11
2019-04-14T21:56:13.421Z,2.14
2019-04-14T21:59:12.012Z,2.14
2019-04-14T22:02:02.319Z,2.12
2019-04-14T22:04:54.144Z,2.14
2019-04-14T22:07:36.401Z,2.11
2019-04-14T22:10:18.644Z,2.02
2019-04-14T22:12:51.647Z,2.03
2019-04-14T22:15:24.632Z,2.03
2019-04-14T22:17:57.688Z,1.99
2019-04-14T22:20:30.757Z,1.98
2019-04-14T22:23:05.427Z,2.03
2019-04-14T22:25:38.328Z,2.09
2019-04-14T22:28:12.700Z,2.05
2019-04-14T22:30:46.016Z,2.00
2019-04-14T22:33:18.980Z,1.92
2019-04-14T22:35:52.005Z,1.84
2019-04-14T22:38:24.982Z,1.82
2019-04-14T22:40:58.465Z,1.85
2019-04-14T22:43:31.699Z,1.71
2019-04-14T22:46:04.303Z,1.65
2019-04-14T22:48:40.056Z,1.56
2019-04-14T22:51:13.091Z,1.38
2019-04-14T22:53:48.841Z,1.29
2019-04-14T22:56:21.782Z,1.13
2019-04-14T22:58:54.746Z,1.23
2019-04-14T23:01:30.579Z,1.27
2019-04-14T23:04:39.104Z,1.14
2019-04-14T23:07:29.438Z,1.07
2019-04-14T23:10:24.339Z,0.98
2019-04-14T23:13:06.040Z,0.88
2019-04-14T23:15:55.186Z,0.85
2019-04-14T23:18:35.599Z,0.94
2019-04-14T23:21:27.522Z,1.06
2019-04-14T23:24:10.807Z,1.01
2019-04-14T23:26:52.454Z,1.08
2019-04-14T23:29:18.712Z,1.16
2019-04-14T23:31:51.722Z,1.20
2019-04-14T23:34:24.838Z,1.18
2019-04-14T23:36:59.876Z,1.23
2019-04-14T23:39:33.304Z,1.25
2019-04-14T23:42:06.357Z,1.33
2019-04-14T23:44:39.326Z,1.31
2019-04-14T23:47:12.364Z,1.28
2019-04-14T23:49:45.421Z,1.27
2019-04-14T23:52:18.713Z,1.33
2019-04-14T23:54:51.820Z,1.29
2019-04-14T23:57:24.880Z,1.29
2019-04-14T23:59:58.296Z,1.35
